Delta Billie — WDE8059 — position and weather

sailwx.info

Track history (hours):
 
Tides and Currents Weather Stations Pressure Air Temp Water Temp Dewpoint Dewpoint Depression Visibility Wind Speed Wind Dir Waves Ship Positions

Delta Billie

Owner: Baydelta Maritime, San Francicso, CA. More information available from US FCC via Universal Licensing System and Coast Guard Vessel Documentation Center.

Last reported at 2017-Jan-17 11:33 UTC. Time now 2017-Jan-17 23:28 UTC.
Position N 38°02' W 122°08'.

Length 30 m; draft 5.5 m.

Type: Towing. MMSI: 367401030.

Date/timePositionNaut miles runAvg speedWind from/ knotsBaromVisibWave heightAir tempDewpointWater temp
2017-Jan-17 11:33N 38°02' W 122°08'1 0.2
2017-Jan-17 04:08N 38°03' W 122°06'3 4.4
2017-Jan-17 03:20N 38°03' W 122°10'6 7.5
2017-Jan-17 02:32N 38°03' W 122°18'9 8.8
2017-Jan-17 01:33N 37°58' W 122°27'5 4.8
2017-Jan-17 00:33N 37°55' W 122°22'3 3.3
2017-Jan-16 23:33N 37°56' W 122°26'9 9.0
2017-Jan-16 22:33N 38°03' W 122°18'8 2.6
2017-Jan-16 19:25N 38°02' W 122°08'2 0.4
2017-Jan-16 14:23N 38°02' W 122°10'3 3.9
2017-Jan-16 13:30N 38°04' W 122°14'1 0.1
2017-Jan-16 01:32N 38°04' W 122°13'9 8.9
2017-Jan-16 00:31N 38°01' W 122°24'6 6.6
2017-Jan-15 23:33N 37°54' W 122°23'1 1.3
2017-Jan-15 22:33N 37°55' W 122°22'2 2.4
2017-Jan-15 21:33N 37°55' W 122°25'0 0.2
2017-Jan-15 20:33N 37°55' W 122°25'1 0.7
2017-Jan-15 19:33N 37°55' W 122°25'2 2.2
2017-Jan-15 18:33N 37°53' W 122°25'5 5.0
2017-Jan-15 17:33N 37°48' W 122°24'0 0.0
2017-Jan-15 16:33N 37°48' W 122°24'0 0.0
2017-Jan-15 15:33N 37°48' W 122°24'0 0.0
2017-Jan-15 14:33N 37°48' W 122°24'0 0.0
2017-Jan-15 13:33N 37°48' W 122°24'3 2.6
2017-Jan-15 12:33N 37°46' W 122°22'1 0.8
2017-Jan-15 11:34N 37°47' W 122°22'2 1.8
2017-Jan-15 10:33N 37°48' W 122°24'0 0.0
2017-Jan-15 09:33N 37°48' W 122°24'3 3.0
2017-Jan-15 08:33N 37°51' W 122°25'9 9.0
2017-Jan-15 07:33N 38°00' W 122°24'1110.7
2017-Jan-15 06:34N 38°03' W 122°11'4 0.4
2017-Jan-14 21:33N 38°04' W 122°16'1010.4
2017-Jan-14 20:33N 37°57' W 122°27'10 9.9
2017-Jan-14 19:33N 37°48' W 122°22'1 1.1
2017-Jan-14 18:34N 37°47' W 122°21'1 0.5
2017-Jan-14 17:34N 37°48' W 122°22'2 1.6
2017-Jan-14 16:33N 37°48' W 122°24'0 0.0
2017-Jan-14 15:33N 37°48' W 122°24'0 0.0
2017-Jan-14 14:33N 37°48' W 122°24'0 0.0
2017-Jan-14 13:33N 37°48' W 122°24'0 0.0
2017-Jan-14 12:33N 37°48' W 122°24'0 0.0
2017-Jan-14 11:33N 37°48' W 122°24'0 0.0
2017-Jan-14 10:33N 37°48' W 122°24'1 1.3
2017-Jan-14 09:33N 37°48' W 122°22'2 2.3
2017-Jan-14 08:33N 37°49' W 122°19'4 3.6
2017-Jan-14 07:33N 37°48' W 122°24'0 0.0
2017-Jan-14 06:33N 37°48' W 122°24'0 0.0
2017-Jan-14 05:33N 37°48' W 122°24'0 0.0
2017-Jan-14 04:33N 37°48' W 122°24'0 0.0
2017-Jan-14 03:33N 37°48' W 122°24'7 1.8
2017-Jan-13 23:33N 37°55' W 122°22'0 0.3
2017-Jan-13 22:33N 37°55' W 122°22'5 5.4
2017-Jan-13 21:33N 37°60' W 122°25'9 8.9
2017-Jan-13 20:33N 38°04' W 122°15'6 3.9
2017-Jan-13 19:06N 38°03' W 122°08'0 0.8
2017-Jan-13 18:33N 38°02' W 122°08'7 6.8
2017-Jan-13 17:33N 38°04' W 122°17'2 0.7
2017-Jan-13 15:24N 38°03' W 122°15'4 5.1
2017-Jan-13 14:33N 38°02' W 122°09'1 1.1
2017-Jan-13 13:32N 38°02' W 122°08'2 0.5
2017-Jan-13 09:12N 38°03' W 122°11'6 8.8
2017-Jan-13 08:33N 38°03' W 122°18'9 8.9
2017-Jan-13 07:33N 37°57' W 122°26'9 9.2
2017-Jan-13 06:33N 37°48' W 122°23'3 2.8
2017-Jan-13 05:34N 37°45' W 122°21'7 7.4
2017-Jan-13 04:33N 37°48' W 122°30'3 2.7
2017-Jan-13 03:34N 37°50' W 122°28'6 5.6
2017-Jan-13 02:33N 37°55' W 122°25'2 2.3
2017-Jan-13 01:33N 37°55' W 122°22'3 2.8
2017-Jan-13 00:33N 37°54' W 122°25'1 1.0
2017-Jan-12 23:33N 37°55' W 122°25'0 0.0
2017-Jan-12 22:33N 37°55' W 122°25'1 1.4
2017-Jan-12 21:33N 37°56' W 122°26'9 9.0
2017-Jan-12 20:33N 38°03' W 122°18'2 1.4
2017-Jan-12 19:10N 38°03' W 122°16'4 6.2
2017-Jan-12 18:29N 38°02' W 122°21'1011.2
2017-Jan-12 17:33N 37°52' W 122°24'4 4.0
2017-Jan-12 16:33N 37°48' W 122°24'0 0.0
2017-Jan-12 15:33N 37°48' W 122°24'0 0.0
2017-Jan-12 14:33N 37°48' W 122°24'2 2.3
2017-Jan-12 13:33N 37°48' W 122°21'2 2.3
2017-Jan-12 12:33N 37°48' W 122°24'0 0.0
2017-Jan-12 11:33N 37°48' W 122°24'0 0.0
2017-Jan-12 10:33N 37°48' W 122°24'0 0.0
2017-Jan-12 09:33N 37°48' W 122°24'0 0.0
2017-Jan-12 08:33N 37°48' W 122°24'2 1.7
2017-Jan-12 07:33N 37°50' W 122°24'6 5.8
2017-Jan-12 06:33N 37°56' W 122°25'0 0.1
2017-Jan-12 05:32N 37°56' W 122°25'9 9.3
2017-Jan-12 04:33N 37°47' W 122°22'5 5.2
2017-Jan-12 03:33N 37°49' W 122°28'2 2.2
2017-Jan-12 02:33N 37°48' W 122°30'5 4.9
2017-Jan-12 01:33N 37°52' W 122°27'8 8.3
2017-Jan-12 00:33N 38°00' W 122°25'11 9.8
2017-Jan-11 23:28N 38°03' W 122°12'2 1.1
2017-Jan-11 21:21N 38°02' W 122°09'1 0.6
2017-Jan-11 19:31N 38°02' W 122°08'0 0.0
2017-Jan-10 19:16N 38°02' W 122°08'5 6.3
2017-Jan-10 18:30N 38°04' W 122°14'1010.6
2017-Jan-10 17:31N 37°59' W 122°26'1010.5
2017-Jan-10 16:33N 37°49' W 122°24'7 7.0
2017-Jan-10 15:33N 37°43' W 122°20'0 0.1
2017-Jan-10 14:34N 37°43' W 122°20'5 4.8
2017-Jan-10 13:34N 37°48' W 122°21'1 0.5
2017-Jan-10 12:33N 37°48' W 122°21'2 1.8
2017-Jan-10 11:34N 37°46' W 122°21'3 2.6
2017-Jan-10 10:33N 37°48' W 122°24'0 0.0
2017-Jan-10 09:33N 37°48' W 122°24'0 0.0
2017-Jan-10 08:33N 37°48' W 122°24'0 0.0
2017-Jan-10 07:33N 37°48' W 122°24'0 0.0
2017-Jan-10 06:33N 37°48' W 122°24'0 0.0
2017-Jan-10 05:33N 37°48' W 122°24'0 0.0
2017-Jan-10 04:33N 37°48' W 122°24'0 0.0
2017-Jan-10 03:33N 37°48' W 122°24'0 0.0
2017-Jan-10 02:33N 37°48' W 122°24'0 0.0
2017-Jan-10 01:33N 37°48' W 122°24'6 6.0
2017-Jan-10 00:33N 37°54' W 122°25'1 1.4
2017-Jan-09 23:33N 37°55' W 122°25'8 8.4
2017-Jan-09 22:33N 38°03' W 122°20'9 0.8
2017-Jan-09 10:18N 38°02' W 122°08'5 1.3
2017-Jan-09 06:33N 38°04' W 122°14'1010.0
2017-Jan-09 05:31N 37°59' W 122°25'5 4.7
2017-Jan-09 04:33N 37°55' W 122°24'1 0.9
2017-Jan-09 03:33N 37°55' W 122°25'4 3.5
2017-Jan-09 02:33N 37°51' W 122°24'3 3.0
2017-Jan-09 01:33N 37°48' W 122°24'0 0.0
2017-Jan-09 00:33N 37°48' W 122°24'0 0.0
2017-Jan-08 23:33N 37°48' W 122°24'0 0.0
2017-Jan-08 22:32N 37°48' W 122°24'0 0.0
2017-Jan-08 21:33N 37°48' W 122°24'0 0.0
2017-Jan-08 20:33N 37°48' W 122°24'1 1.5
2017-Jan-08 19:33N 37°48' W 122°22'2 1.8
2017-Jan-08 18:33N 37°49' W 122°20'0 0.0
2017-Jan-08 17:33N 37°49' W 122°20'0 0.0
2017-Jan-08 16:33N 37°49' W 122°20'0 0.2
2017-Jan-08 15:33N 37°49' W 122°20'0 0.2
2017-Jan-08 14:33N 37°49' W 122°20'2 2.3
2017-Jan-08 13:34N 37°49' W 122°23'2 2.2
2017-Jan-08 12:33N 37°49' W 122°20'0 0.5
2017-Jan-08 11:33N 37°48' W 122°20'3 2.7
2017-Jan-08 10:32N 37°48' W 122°24'0 0.0
2017-Jan-08 09:33N 37°48' W 122°24'0 0.0
2017-Jan-08 08:33N 37°48' W 122°24'0 0.0
2017-Jan-08 07:32N 37°48' W 122°24'0 0.0
2017-Jan-08 06:33N 37°48' W 122°24'0 0.0
2017-Jan-08 05:33N 37°48' W 122°24'0 0.0
2017-Jan-08 04:33N 37°48' W 122°24'0 0.0
2017-Jan-08 03:33N 37°48' W 122°24'0 0.0
2017-Jan-08 02:33N 37°48' W 122°24'0 0.0
2017-Jan-08 01:33N 37°48' W 122°24'0 0.0
2017-Jan-08 00:33N 37°48' W 122°24'0 0.0
2017-Jan-07 23:33N 37°48' W 122°24'0 0.0
2017-Jan-07 22:33N 37°48' W 122°24'0 0.0
2017-Jan-07 21:33N 37°48' W 122°24'0 0.0
2017-Jan-07 20:33N 37°48' W 122°24'0 0.0
2017-Jan-07 19:33N 37°48' W 122°24'0 0.0
2017-Jan-07 18:33N 37°48' W 122°24'0 0.0
2017-Jan-07 17:33N 37°48' W 122°24'0 0.0
2017-Jan-07 16:33N 37°48' W 122°24'0 0.0
2017-Jan-07 15:33N 37°48' W 122°24'3 2.7
2017-Jan-07 14:33N 37°48' W 122°20'1 0.8
2017-Jan-07 13:33N 37°49' W 122°20'0 0.3
2017-Jan-07 12:33N 37°49' W 122°20'0 0.0
2017-Jan-07 11:33N 37°49' W 122°20'  
Track history (hours):
 
Tides and Currents Weather Stations Pressure Air Temp Water Temp Dewpoint Dewpoint Depression Visibility Wind Speed Wind Dir Waves Ship Positions

Delta Billie

Owner: Baydelta Maritime, San Francicso, CA. More information available from US FCC via Universal Licensing System and Coast Guard Vessel Documentation Center.

Last reported at 2017-Jan-17 11:33 UTC. Time now 2017-Jan-17 23:28 UTC.
Position N 38°02' W 122°08'.

Length 30 m; draft 5.5 m.

Type: Towing. MMSI: 367401030.

Date/timePositionNaut miles runAvg speedWind from/ knotsBaromVisibWave heightAir tempDewpointWater temp
2017-Jan-17 11:33N 38°02' W 122°08'1 0.2
2017-Jan-17 04:08N 38°03' W 122°06'3 4.4
2017-Jan-17 03:20N 38°03' W 122°10'6 7.5
2017-Jan-17 02:32N 38°03' W 122°18'9 8.8
2017-Jan-17 01:33N 37°58' W 122°27'5 4.8
2017-Jan-17 00:33N 37°55' W 122°22'3 3.3
2017-Jan-16 23:33N 37°56' W 122°26'9 9.0
2017-Jan-16 22:33N 38°03' W 122°18'8 2.6
2017-Jan-16 19:25N 38°02' W 122°08'2 0.4
2017-Jan-16 14:23N 38°02' W 122°10'3 3.9
2017-Jan-16 13:30N 38°04' W 122°14'1 0.1
2017-Jan-16 01:32N 38°04' W 122°13'9 8.9
2017-Jan-16 00:31N 38°01' W 122°24'6 6.6
2017-Jan-15 23:33N 37°54' W 122°23'1 1.3
2017-Jan-15 22:33N 37°55' W 122°22'2 2.4
2017-Jan-15 21:33N 37°55' W 122°25'0 0.2
2017-Jan-15 20:33N 37°55' W 122°25'1 0.7
2017-Jan-15 19:33N 37°55' W 122°25'2 2.2
2017-Jan-15 18:33N 37°53' W 122°25'5 5.0
2017-Jan-15 17:33N 37°48' W 122°24'0 0.0
2017-Jan-15 16:33N 37°48' W 122°24'0 0.0
2017-Jan-15 15:33N 37°48' W 122°24'0 0.0
2017-Jan-15 14:33N 37°48' W 122°24'0 0.0
2017-Jan-15 13:33N 37°48' W 122°24'3 2.6
2017-Jan-15 12:33N 37°46' W 122°22'1 0.8
2017-Jan-15 11:34N 37°47' W 122°22'2 1.8
2017-Jan-15 10:33N 37°48' W 122°24'0 0.0
2017-Jan-15 09:33N 37°48' W 122°24'3 3.0
2017-Jan-15 08:33N 37°51' W 122°25'9 9.0
2017-Jan-15 07:33N 38°00' W 122°24'1110.7
2017-Jan-15 06:34N 38°03' W 122°11'4 0.4
2017-Jan-14 21:33N 38°04' W 122°16'1010.4
2017-Jan-14 20:33N 37°57' W 122°27'10 9.9
2017-Jan-14 19:33N 37°48' W 122°22'1 1.1
2017-Jan-14 18:34N 37°47' W 122°21'1 0.5
2017-Jan-14 17:34N 37°48' W 122°22'2 1.6
2017-Jan-14 16:33N 37°48' W 122°24'0 0.0
2017-Jan-14 15:33N 37°48' W 122°24'0 0.0
2017-Jan-14 14:33N 37°48' W 122°24'0 0.0
2017-Jan-14 13:33N 37°48' W 122°24'0 0.0
2017-Jan-14 12:33N 37°48' W 122°24'0 0.0
2017-Jan-14 11:33N 37°48' W 122°24'0 0.0
2017-Jan-14 10:33N 37°48' W 122°24'1 1.3
2017-Jan-14 09:33N 37°48' W 122°22'2 2.3
2017-Jan-14 08:33N 37°49' W 122°19'4 3.6
2017-Jan-14 07:33N 37°48' W 122°24'0 0.0
2017-Jan-14 06:33N 37°48' W 122°24'0 0.0
2017-Jan-14 05:33N 37°48' W 122°24'0 0.0
2017-Jan-14 04:33N 37°48' W 122°24'0 0.0
2017-Jan-14 03:33N 37°48' W 122°24'7 1.8
2017-Jan-13 23:33N 37°55' W 122°22'0 0.3
2017-Jan-13 22:33N 37°55' W 122°22'5 5.4
2017-Jan-13 21:33N 37°60' W 122°25'9 8.9
2017-Jan-13 20:33N 38°04' W 122°15'6 3.9
2017-Jan-13 19:06N 38°03' W 122°08'0 0.8
2017-Jan-13 18:33N 38°02' W 122°08'7 6.8
2017-Jan-13 17:33N 38°04' W 122°17'2 0.7
2017-Jan-13 15:24N 38°03' W 122°15'4 5.1
2017-Jan-13 14:33N 38°02' W 122°09'1 1.1
2017-Jan-13 13:32N 38°02' W 122°08'2 0.5
2017-Jan-13 09:12N 38°03' W 122°11'6 8.8
2017-Jan-13 08:33N 38°03' W 122°18'9 8.9
2017-Jan-13 07:33N 37°57' W 122°26'9 9.2
2017-Jan-13 06:33N 37°48' W 122°23'3 2.8
2017-Jan-13 05:34N 37°45' W 122°21'7 7.4
2017-Jan-13 04:33N 37°48' W 122°30'3 2.7
2017-Jan-13 03:34N 37°50' W 122°28'6 5.6
2017-Jan-13 02:33N 37°55' W 122°25'2 2.3
2017-Jan-13 01:33N 37°55' W 122°22'3 2.8
2017-Jan-13 00:33N 37°54' W 122°25'1 1.0
2017-Jan-12 23:33N 37°55' W 122°25'0 0.0
2017-Jan-12 22:33N 37°55' W 122°25'1 1.4
2017-Jan-12 21:33N 37°56' W 122°26'9 9.0
2017-Jan-12 20:33N 38°03' W 122°18'2 1.4
2017-Jan-12 19:10N 38°03' W 122°16'4 6.2
2017-Jan-12 18:29N 38°02' W 122°21'1011.2
2017-Jan-12 17:33N 37°52' W 122°24'4 4.0
2017-Jan-12 16:33N 37°48' W 122°24'0 0.0
2017-Jan-12 15:33N 37°48' W 122°24'0 0.0
2017-Jan-12 14:33N 37°48' W 122°24'2 2.3
2017-Jan-12 13:33N 37°48' W 122°21'2 2.3
2017-Jan-12 12:33N 37°48' W 122°24'0 0.0
2017-Jan-12 11:33N 37°48' W 122°24'0 0.0
2017-Jan-12 10:33N 37°48' W 122°24'0 0.0
2017-Jan-12 09:33N 37°48' W 122°24'0 0.0
2017-Jan-12 08:33N 37°48' W 122°24'2 1.7
2017-Jan-12 07:33N 37°50' W 122°24'6 5.8
2017-Jan-12 06:33N 37°56' W 122°25'0 0.1
2017-Jan-12 05:32N 37°56' W 122°25'9 9.3
2017-Jan-12 04:33N 37°47' W 122°22'5 5.2
2017-Jan-12 03:33N 37°49' W 122°28'2 2.2
2017-Jan-12 02:33N 37°48' W 122°30'5 4.9
2017-Jan-12 01:33N 37°52' W 122°27'8 8.3
2017-Jan-12 00:33N 38°00' W 122°25'11 9.8
2017-Jan-11 23:28N 38°03' W 122°12'2 1.1
2017-Jan-11 21:21N 38°02' W 122°09'1 0.6
2017-Jan-11 19:31N 38°02' W 122°08'0 0.0
2017-Jan-10 19:16N 38°02' W 122°08'5 6.3
2017-Jan-10 18:30N 38°04' W 122°14'1010.6
2017-Jan-10 17:31N 37°59' W 122°26'1010.5
2017-Jan-10 16:33N 37°49' W 122°24'7 7.0
2017-Jan-10 15:33N 37°43' W 122°20'0 0.1
2017-Jan-10 14:34N 37°43' W 122°20'5 4.8
2017-Jan-10 13:34N 37°48' W 122°21'1 0.5
2017-Jan-10 12:33N 37°48' W 122°21'2 1.8
2017-Jan-10 11:34N 37°46' W 122°21'3 2.6
2017-Jan-10 10:33N 37°48' W 122°24'0 0.0
2017-Jan-10 09:33N 37°48' W 122°24'0 0.0
2017-Jan-10 08:33N 37°48' W 122°24'0 0.0
2017-Jan-10 07:33N 37°48' W 122°24'0 0.0
2017-Jan-10 06:33N 37°48' W 122°24'0 0.0
2017-Jan-10 05:33N 37°48' W 122°24'0 0.0
2017-Jan-10 04:33N 37°48' W 122°24'0 0.0
2017-Jan-10 03:33N 37°48' W 122°24'0 0.0
2017-Jan-10 02:33N 37°48' W 122°24'0 0.0
2017-Jan-10 01:33N 37°48' W 122°24'6 6.0
2017-Jan-10 00:33N 37°54' W 122°25'1 1.4
2017-Jan-09 23:33N 37°55' W 122°25'8 8.4
2017-Jan-09 22:33N 38°03' W 122°20'9 0.8
2017-Jan-09 10:18N 38°02' W 122°08'5 1.3
2017-Jan-09 06:33N 38°04' W 122°14'1010.0
2017-Jan-09 05:31N 37°59' W 122°25'5 4.7
2017-Jan-09 04:33N 37°55' W 122°24'1 0.9
2017-Jan-09 03:33N 37°55' W 122°25'4 3.5
2017-Jan-09 02:33N 37°51' W 122°24'3 3.0
2017-Jan-09 01:33N 37°48' W 122°24'0 0.0
2017-Jan-09 00:33N 37°48' W 122°24'0 0.0
2017-Jan-08 23:33N 37°48' W 122°24'0 0.0
2017-Jan-08 22:32N 37°48' W 122°24'0 0.0
2017-Jan-08 21:33N 37°48' W 122°24'0 0.0
2017-Jan-08 20:33N 37°48' W 122°24'1 1.5
2017-Jan-08 19:33N 37°48' W 122°22'2 1.8
2017-Jan-08 18:33N 37°49' W 122°20'0 0.0
2017-Jan-08 17:33N 37°49' W 122°20'0 0.0
2017-Jan-08 16:33N 37°49' W 122°20'0 0.2
2017-Jan-08 15:33N 37°49' W 122°20'0 0.2
2017-Jan-08 14:33N 37°49' W 122°20'2 2.3
2017-Jan-08 13:34N 37°49' W 122°23'2 2.2
2017-Jan-08 12:33N 37°49' W 122°20'0 0.5
2017-Jan-08 11:33N 37°48' W 122°20'3 2.7
2017-Jan-08 10:32N 37°48' W 122°24'0 0.0
2017-Jan-08 09:33N 37°48' W 122°24'0 0.0
2017-Jan-08 08:33N 37°48' W 122°24'0 0.0
2017-Jan-08 07:32N 37°48' W 122°24'0 0.0
2017-Jan-08 06:33N 37°48' W 122°24'0 0.0
2017-Jan-08 05:33N 37°48' W 122°24'0 0.0
2017-Jan-08 04:33N 37°48' W 122°24'0 0.0
2017-Jan-08 03:33N 37°48' W 122°24'0 0.0
2017-Jan-08 02:33N 37°48' W 122°24'0 0.0
2017-Jan-08 01:33N 37°48' W 122°24'0 0.0
2017-Jan-08 00:33N 37°48' W 122°24'0 0.0
2017-Jan-07 23:33N 37°48' W 122°24'0 0.0
2017-Jan-07 22:33N 37°48' W 122°24'0 0.0
2017-Jan-07 21:33N 37°48' W 122°24'0 0.0
2017-Jan-07 20:33N 37°48' W 122°24'0 0.0
2017-Jan-07 19:33N 37°48' W 122°24'0 0.0
2017-Jan-07 18:33N 37°48' W 122°24'0 0.0
2017-Jan-07 17:33N 37°48' W 122°24'0 0.0
2017-Jan-07 16:33N 37°48' W 122°24'0 0.0
2017-Jan-07 15:33N 37°48' W 122°24'3 2.7
2017-Jan-07 14:33N 37°48' W 122°20'1 0.8
2017-Jan-07 13:33N 37°49' W 122°20'0 0.3
2017-Jan-07 12:33N 37°49' W 122°20'0 0.0
2017-Jan-07 11:33N 37°49' W 122°20'  

Dump ship's entire track history